createdAt,value
2023-01-27T00:00:17.407Z,39.87
2023-01-27T00:05:57.307Z,47.73
2023-01-27T00:11:59.172Z,44.17
2023-01-27T00:17:45.779Z,42.13
2023-01-27T00:23:47.573Z,43.70
2023-01-27T00:29:17.687Z,32.93
2023-01-27T00:34:41.673Z,42.10
2023-01-27T00:40:03.407Z,42.17
2023-01-27T00:45:50.965Z,41.90
2023-01-27T00:51:21.795Z,50.47
2023-01-27T00:57:04.719Z,48.03
2023-01-27T01:02:48.806Z,47.90
2023-01-27T01:08:11.126Z,43.10
2023-01-27T01:13:49.704Z,59.80
2023-01-27T01:19:17.039Z,41.03
2023-01-27T01:24:39.246Z,45.10
2023-01-27T01:30:01.293Z,41.37
2023-01-27T01:35:27.052Z,41.53
2023-01-27T01:40:58.039Z,37.70
2023-01-27T01:46:26.145Z,43.90
2023-01-27T01:52:09.448Z,41.17
2023-01-27T01:57:59.681Z,51.30
2023-01-27T02:03:49.899Z,37.80
2023-01-27T02:09:14.122Z,45.17
2023-01-27T02:14:58.303Z,45.13
2023-01-27T02:20:37.670Z,40.13
2023-01-27T02:26:27.030Z,35.77
2023-01-27T02:32:09.719Z,38.63
2023-01-27T02:37:53.187Z,49.40
2023-01-27T02:43:31.528Z,39.10
2023-01-27T02:49:09.923Z,37.07
2023-01-27T02:54:31.520Z,35.37
2023-01-27T02:59:53.508Z,33.20
2023-01-27T03:05:24.664Z,35.20
2023-01-27T03:11:23.638Z,38.70
2023-01-27T03:17:17.456Z,34.07
2023-01-27T03:22:59.990Z,33.07
2023-01-27T03:28:40.182Z,48.20
2023-01-27T03:34:15.947Z,47.60
2023-01-27T03:40:04.617Z,61.30
2023-01-27T03:45:54.172Z,61.53
2023-01-27T03:51:30.847Z,64.30
2023-01-27T03:57:15.062Z,63.07
2023-01-27T04:03:10.743Z,61.33
2023-01-27T04:08:37.893Z,67.97
2023-01-27T04:14:12.059Z,62.80
2023-01-27T04:19:34.618Z,51.43
2023-01-27T04:24:56.173Z,53.80
2023-01-27T04:30:17.477Z,55.10
2023-01-27T04:35:39.004Z,75.47
2023-01-27T04:41:00.934Z,55.57
2023-01-27T04:46:33.443Z,65.77
2023-01-27T04:52:20.835Z,61.20
2023-01-27T04:58:00.506Z,60.47
2023-01-27T05:03:30.041Z,65.47
2023-01-27T05:09:16.774Z,51.20
2023-01-27T05:14:57.740Z,53.00
2023-01-27T05:20:26.599Z,60.93
2023-01-27T05:26:12.039Z,57.03
2023-01-27T05:32:16.585Z,59.90
2023-01-27T05:37:54.126Z,52.17
2023-01-27T05:43:31.793Z,51.40
2023-01-27T05:49:06.420Z,59.30
2023-01-27T05:54:32.193Z,56.83
2023-01-27T05:59:54.171Z,46.00
2023-01-27T06:05:16.569Z,47.97
2023-01-27T06:10:38.408Z,51.10
2023-01-27T06:16:29.961Z,58.87
2023-01-27T06:22:16.594Z,59.57
2023-01-27T06:28:02.923Z,63.10
2023-01-27T06:33:40.821Z,75.30
2023-01-27T06:39:10.917Z,81.93
2023-01-27T06:44:34.031Z,72.70
2023-01-27T06:49:55.617Z,68.07
2023-01-27T06:55:17.194Z,72.53
2023-01-27T07:00:40.804Z,65.53
2023-01-27T07:06:13.895Z,60.87
2023-01-27T07:11:58.055Z,60.57
2023-01-27T07:17:44.724Z,48.50
2023-01-27T07:23:27.578Z,52.67
2023-01-27T07:29:05.011Z,53.07
2023-01-27T07:34:30.099Z,42.03
2023-01-27T07:39:51.818Z,40.37
2023-01-27T07:45:19.636Z,44.70
2023-01-27T07:50:44.280Z,34.57
2023-01-27T07:56:27.129Z,33.33
2023-01-27T08:01:58.600Z,26.90
2023-01-27T08:07:29.312Z,30.23
2023-01-27T08:12:51.209Z,35.93
2023-01-27T08:18:29.856Z,31.50
2023-01-27T08:23:58.699Z,24.57
2023-01-27T08:29:23.710Z,27.97
2023-01-27T08:35:47.264Z,34.50
2023-01-27T08:41:29.248Z,30.17
2023-01-27T08:46:51.016Z,29.17
2023-01-27T08:52:25.826Z,25.60
2023-01-27T08:58:08.380Z,29.87
2023-01-27T09:03:46.396Z,24.83
2023-01-27T09:09:12.246Z,34.63
2023-01-27T09:14:35.207Z,30.67
2023-01-27T09:19:56.410Z,30.23
2023-01-27T09:25:21.363Z,27.47
2023-01-27T09:30:46.587Z,28.40
2023-01-27T09:36:35.252Z,22.93
2023-01-27T09:43:09.940Z,25.10
2023-01-27T09:49:05.369Z,25.00
2023-01-27T09:54:37.591Z,26.97
2023-01-27T10:00:29.084Z,24.37
2023-01-27T10:06:10.810Z,28.03
2023-01-27T10:12:05.848Z,25.50
2023-01-27T10:18:07.201Z,29.33
2023-01-27T10:23:57.546Z,30.37
2023-01-27T10:29:30.901Z,31.70
2023-01-27T10:35:09.368Z,30.20
2023-01-27T10:41:23.367Z,35.63
2023-01-27T10:47:27.357Z,33.37
2023-01-27T10:53:42.344Z,32.13
2023-01-27T10:59:52.258Z,32.67
2023-01-27T11:05:52.387Z,37.50
2023-01-27T11:11:36.399Z,38.40
2023-01-27T11:17:24.502Z,37.20
2023-01-27T11:23:24.427Z,40.07
2023-01-27T11:29:23.044Z,40.77
2023-01-27T11:35:12.110Z,36.00
2023-01-27T11:40:38.689Z,34.93
2023-01-27T11:46:30.031Z,29.60
2023-01-27T11:52:21.471Z,34.20
2023-01-27T11:58:15.754Z,31.53
2023-01-27T12:04:40.000Z,31.37
2023-01-27T12:10:28.679Z,35.40
2023-01-27T12:16:22.665Z,35.60
2023-01-27T12:22:12.620Z,34.63
2023-01-27T12:28:07.082Z,26.93
2023-01-27T12:34:02.577Z,30.87
2023-01-27T12:39:31.208Z,26.83
2023-01-27T12:44:52.420Z,24.70
2023-01-27T12:50:27.413Z,27.10
2023-01-27T12:55:55.427Z,33.67
2023-01-27T13:02:12.484Z,30.57
2023-01-27T13:07:45.447Z,30.50
2023-01-27T13:13:27.582Z,24.37
2023-01-27T13:19:06.215Z,29.43
2023-01-27T13:24:42.545Z,24.93
2023-01-27T13:30:28.939Z,23.37
2023-01-27T13:36:40.921Z,18.73
2023-01-27T13:42:44.721Z,18.87
2023-01-27T13:48:49.093Z,15.87
2023-01-27T13:54:19.954Z,20.43
2023-01-27T14:00:04.656Z,18.67
2023-01-27T14:06:09.664Z,18.80
2023-01-27T14:11:49.846Z,18.90
2023-01-27T14:18:00.505Z,25.17
2023-01-27T14:23:54.495Z,20.50
2023-01-27T14:29:30.402Z,19.77
2023-01-27T14:35:29.527Z,18.67
2023-01-27T14:40:56.311Z,22.03
2023-01-27T14:47:10.973Z,15.93
2023-01-27T14:53:10.669Z,21.60
2023-01-27T14:59:05.935Z,19.33
2023-01-27T15:04:54.555Z,19.43
2023-01-27T15:10:54.165Z,18.37
2023-01-27T15:16:51.000Z,20.40
2023-01-27T15:22:57.448Z,23.63
2023-01-27T15:28:47.434Z,25.70
2023-01-27T15:34:30.536Z,25.23
2023-01-27T15:40:16.753Z,22.23
2023-01-27T15:45:42.506Z,20.57
2023-01-27T15:51:46.844Z,20.37
2023-01-27T16:03:39.848Z,22.53
2023-01-27T16:09:08.552Z,24.97
2023-01-27T16:14:43.196Z,23.03
2023-01-27T16:20:10.417Z,24.70
2023-01-27T16:25:40.060Z,25.33
2023-01-27T16:31:31.841Z,24.90
2023-01-27T16:37:44.652Z,26.23
2023-01-27T16:43:40.398Z,29.90
2023-01-27T16:49:23.921Z,31.83
2023-01-27T16:54:50.512Z,26.60
2023-01-27T17:00:23.766Z,28.23
2023-01-27T17:06:11.551Z,28.83
2023-01-27T17:11:34.505Z,24.37
2023-01-27T17:17:21.965Z,29.40
2023-01-27T17:22:56.833Z,23.50
2023-01-27T17:28:26.742Z,26.50
2023-01-27T17:34:05.159Z,32.87
2023-01-27T17:39:27.963Z,30.47
2023-01-27T17:44:50.748Z,26.80
2023-01-27T17:50:18.354Z,25.47
2023-01-27T17:55:40.229Z,24.30
2023-01-27T18:01:02.093Z,16.97
2023-01-27T18:06:45.329Z,12.13
2023-01-27T18:12:36.609Z,13.10
2023-01-27T18:18:28.816Z,15.17
2023-01-27T18:24:06.828Z,13.60
2023-01-27T18:29:39.097Z,12.33
2023-01-27T18:35:00.604Z,11.20
2023-01-27T18:40:29.296Z,15.07
2023-01-27T18:46:08.643Z,18.53
2023-01-27T18:51:50.695Z,15.47
2023-01-27T18:57:27.581Z,20.60
2023-01-27T19:03:32.793Z,18.60
2023-01-27T19:08:58.496Z,21.90
2023-01-27T19:14:25.300Z,27.53
2023-01-27T19:19:47.176Z,30.00
2023-01-27T19:25:09.085Z,25.50
2023-01-27T19:30:36.265Z,30.80
2023-01-27T19:36:28.259Z,29.63
2023-01-27T19:42:16.611Z,26.17
2023-01-27T19:48:00.013Z,36.10
2023-01-27T19:53:27.393Z,33.67
2023-01-27T19:59:01.259Z,35.30
2023-01-27T20:04:47.729Z,36.33
2023-01-27T20:10:35.842Z,34.93
2023-01-27T20:16:28.992Z,35.33
2023-01-27T20:22:13.092Z,35.00
2023-01-27T20:27:49.705Z,40.17
2023-01-27T20:33:42.493Z,35.67
2023-01-27T20:39:23.075Z,36.50
2023-01-27T20:44:46.251Z,47.47
2023-01-27T20:50:09.408Z,38.90
2023-01-27T20:55:31.529Z,46.77
2023-01-27T21:00:52.955Z,44.70
2023-01-27T21:06:39.436Z,43.27
2023-01-27T21:12:14.010Z,44.70
2023-01-27T21:17:58.638Z,42.53
2023-01-27T21:23:46.056Z,42.80
2023-01-27T21:29:15.972Z,47.63
2023-01-27T21:34:38.858Z,42.63
2023-01-27T21:40:00.590Z,41.13
2023-01-27T21:45:22.593Z,42.47
2023-01-27T21:50:58.517Z,44.63
2023-01-27T21:56:57.349Z,43.53
2023-01-27T22:02:42.739Z,42.27
2023-01-27T22:08:08.919Z,43.83
2023-01-27T22:13:56.541Z,43.00
2023-01-27T22:19:23.848Z,45.23
2023-01-27T22:24:45.695Z,42.53
2023-01-27T22:30:14.664Z,42.93
2023-01-27T22:35:36.257Z,39.77
2023-01-27T22:41:27.750Z,37.33
2023-01-27T22:47:20.395Z,35.67
2023-01-27T22:53:01.581Z,30.97
2023-01-27T22:58:38.204Z,33.87
2023-01-27T23:04:10.470Z,35.10
2023-01-27T23:09:50.073Z,33.23
2023-01-27T23:15:13.025Z,33.60
2023-01-27T23:20:37.273Z,34.83
2023-01-27T23:26:22.194Z,36.13
2023-01-27T23:32:07.873Z,35.77
2023-01-27T23:37:46.407Z,35.47
2023-01-27T23:43:23.439Z,36.43
2023-01-27T23:49:00.463Z,32.63
2023-01-27T23:54:26.770Z,32.00
2023-01-27T23:59:48.394Z,29.90
